createdAt,value
2023-05-16T00:01:42.962Z,51.24
2023-05-16T00:04:11.109Z,51.16
2023-05-16T00:06:39.139Z,51.05
2023-05-16T00:09:08.458Z,51.13
2023-05-16T00:11:36.467Z,50.85
2023-05-16T00:14:05.266Z,50.87
2023-05-16T00:16:37.276Z,50.67
2023-05-16T00:19:06.675Z,50.59
2023-05-16T00:21:34.664Z,50.56
2023-05-16T00:24:02.563Z,50.56
2023-05-16T00:26:31.915Z,50.43
2023-05-16T00:28:59.845Z,50.34
2023-05-16T00:31:27.844Z,50.19
2023-05-16T00:33:55.858Z,50.04
2023-05-16T00:36:24.054Z,50.13
2023-05-16T00:38:52.063Z,49.99
2023-05-16T00:41:20.115Z,49.93
2023-05-16T00:43:49.404Z,49.97
2023-05-16T00:46:17.415Z,49.66
2023-05-16T00:48:47.367Z,49.75
2023-05-16T00:51:15.504Z,49.57
2023-05-16T00:53:43.807Z,49.44
2023-05-16T00:56:11.853Z,49.49
2023-05-16T00:58:39.823Z,49.30
2023-05-16T01:01:12.460Z,49.15
2023-05-16T01:03:46.014Z,49.36
2023-05-16T01:06:14.128Z,49.10
2023-05-16T01:08:42.040Z,49.00
2023-05-16T01:11:17.076Z,48.96
2023-05-16T01:13:56.734Z,49.05
2023-05-16T01:16:32.248Z,48.68
2023-05-16T01:19:16.276Z,48.87
2023-05-16T01:21:51.289Z,48.56
2023-05-16T01:24:28.488Z,48.57
2023-05-16T01:27:00.376Z,48.61
2023-05-16T01:29:28.308Z,48.42
2023-05-16T01:31:56.326Z,48.44
2023-05-16T01:34:24.313Z,48.42
2023-05-16T01:37:08.530Z,48.24
2023-05-16T01:39:43.147Z,48.13
2023-05-16T01:42:15.839Z,48.12
2023-05-16T01:44:46.931Z,48.02
2023-05-16T01:47:16.362Z,47.92
2023-05-16T01:49:50.976Z,47.82
2023-05-16T01:52:25.628Z,47.94
2023-05-16T01:54:55.388Z,47.82
2023-05-16T01:57:28.170Z,47.76
2023-05-16T01:59:56.260Z,47.64
2023-05-16T02:02:24.264Z,47.50
2023-05-16T02:04:52.298Z,47.46
2023-05-16T02:07:20.786Z,47.49
2023-05-16T02:09:48.799Z,47.26
2023-05-16T02:12:17.158Z,47.47
2023-05-16T02:14:46.521Z,47.47
2023-05-16T02:17:14.476Z,47.22
2023-05-16T02:19:42.462Z,47.36
2023-05-16T02:22:10.385Z,47.12
2023-05-16T02:24:38.344Z,47.20
2023-05-16T02:27:06.738Z,47.01
2023-05-16T02:29:34.651Z,46.96
2023-05-16T02:32:04.770Z,46.87
2023-05-16T02:34:32.777Z,46.89
2023-05-16T02:37:00.688Z,47.09
2023-05-16T02:39:28.916Z,47.85
2023-05-16T02:41:56.857Z,48.66
2023-05-16T02:44:24.839Z,47.87
2023-05-16T02:46:52.804Z,47.19
2023-05-16T02:49:22.243Z,47.11
2023-05-16T02:51:50.454Z,46.92
2023-05-16T02:54:18.708Z,47.10
2023-05-16T02:56:49.862Z,47.15
2023-05-16T02:59:17.839Z,47.41
2023-05-16T03:01:45.905Z,47.68
2023-05-16T03:04:14.127Z,47.50
2023-05-16T03:06:43.697Z,47.30
2023-05-16T03:09:11.708Z,47.15
2023-05-16T03:11:39.675Z,47.04
2023-05-16T03:14:08.418Z,47.43
2023-05-16T03:16:38.857Z,47.03
2023-05-16T03:19:07.249Z,46.86
2023-05-16T03:21:35.356Z,46.77
2023-05-16T03:24:05.639Z,46.83
2023-05-16T03:26:33.629Z,46.50
2023-05-16T03:29:01.587Z,46.47
2023-05-16T03:31:29.662Z,46.56
2023-05-16T03:33:57.575Z,46.50
2023-05-16T03:36:25.650Z,46.38
2023-05-16T03:38:53.652Z,46.26
2023-05-16T03:41:23.089Z,46.26
2023-05-16T03:43:51.160Z,46.22
2023-05-16T03:46:19.277Z,46.17
2023-05-16T03:48:47.302Z,46.19
2023-05-16T03:51:15.374Z,46.18
2023-05-16T03:53:43.349Z,46.01
2023-05-16T03:56:11.304Z,45.98
2023-05-16T03:58:40.760Z,46.03
2023-05-16T04:01:08.721Z,45.86
2023-05-16T04:03:39.645Z,45.97
2023-05-16T04:06:08.845Z,45.89
2023-05-16T04:08:36.782Z,45.81
2023-05-16T04:11:05.288Z,45.84
2023-05-16T04:13:33.353Z,45.70
2023-05-16T04:16:03.032Z,45.57
2023-05-16T04:18:30.993Z,45.71
2023-05-16T04:21:02.277Z,45.70
2023-05-16T04:23:30.321Z,45.45
2023-05-16T04:26:01.983Z,45.51
2023-05-16T04:28:30.338Z,45.48
2023-05-16T04:30:58.366Z,45.44
2023-05-16T04:33:27.642Z,45.39
2023-05-16T04:35:55.716Z,45.36
2023-05-16T04:38:23.643Z,45.30
2023-05-16T04:40:51.878Z,45.23
2023-05-16T04:43:19.859Z,45.27
2023-05-16T04:45:50.718Z,45.21
2023-05-16T04:48:18.748Z,45.24
2023-05-16T04:50:51.160Z,45.19
2023-05-16T04:53:19.171Z,45.07
2023-05-16T04:55:47.407Z,45.13
2023-05-16T04:58:15.427Z,45.06
2023-05-16T05:00:43.497Z,45.19
2023-05-16T05:03:11.534Z,45.05
2023-05-16T05:05:39.558Z,45.01
2023-05-16T05:08:09.784Z,45.23
2023-05-16T05:10:37.866Z,45.12
2023-05-16T05:13:08.902Z,45.18
2023-05-16T05:15:36.849Z,45.01
2023-05-16T05:18:05.202Z,45.01
2023-05-16T05:20:33.158Z,45.16
2023-05-16T05:23:01.153Z,44.92
2023-05-16T05:25:30.456Z,45.00
2023-05-16T05:27:58.343Z,44.80
2023-05-16T05:30:29.225Z,44.79
2023-05-16T05:32:57.262Z,44.77
2023-05-16T05:35:25.380Z,44.64
2023-05-16T05:37:53.663Z,44.44
2023-05-16T05:40:21.561Z,44.50
2023-05-16T05:42:51.218Z,44.52
2023-05-16T05:45:22.073Z,44.41
2023-05-16T05:47:50.309Z,44.47
2023-05-16T05:50:18.762Z,44.40
2023-05-16T05:52:49.839Z,44.44
2023-05-16T05:55:20.478Z,44.38
2023-05-16T05:57:49.897Z,44.46
2023-05-16T06:00:18.190Z,44.68
2023-05-16T06:02:46.389Z,44.73
2023-05-16T06:05:14.484Z,44.91
2023-05-16T06:07:42.469Z,44.91
2023-05-16T06:10:12.926Z,44.59
2023-05-16T06:12:40.868Z,44.76
2023-05-16T06:15:11.840Z,44.78
2023-05-16T06:17:39.775Z,44.93
2023-05-16T06:20:09.227Z,44.17
2023-05-16T06:22:37.206Z,43.05
2023-05-16T06:25:05.638Z,42.57
2023-05-16T06:27:33.578Z,42.49
2023-05-16T06:30:01.534Z,42.15
2023-05-16T06:32:30.951Z,42.06
2023-05-16T06:34:58.906Z,42.14
2023-05-16T06:37:27.132Z,41.85
2023-05-16T06:39:55.217Z,41.99
2023-05-16T06:42:26.187Z,41.98
2023-05-16T06:44:54.181Z,41.98
2023-05-16T06:47:22.169Z,42.05
2023-05-16T06:49:51.850Z,41.83
2023-05-16T06:52:19.824Z,41.92
2023-05-16T06:54:47.876Z,42.00
2023-05-16T06:57:16.517Z,41.79
2023-05-16T06:59:44.544Z,41.86
2023-05-16T07:02:12.525Z,41.82
2023-05-16T07:04:40.738Z,41.92
2023-05-16T07:07:10.108Z,41.95
2023-05-16T07:09:38.107Z,41.79
2023-05-16T07:12:06.866Z,41.58
2023-05-16T07:14:34.853Z,41.53
2023-05-16T07:17:03.817Z,42.12
2023-05-16T07:19:34.080Z,41.98
2023-05-16T07:22:02.037Z,45.64
2023-05-16T07:24:31.404Z,44.01
2023-05-16T07:26:59.394Z,43.88
2023-05-16T07:29:28.469Z,43.03
2023-05-16T07:31:56.463Z,43.05
2023-05-16T07:34:24.663Z,42.92
2023-05-16T07:36:52.602Z,42.82
2023-05-16T07:39:20.572Z,43.17
2023-05-16T07:41:49.936Z,42.62
2023-05-16T07:44:17.903Z,42.52
2023-05-16T07:46:45.963Z,42.65
2023-05-16T07:49:16.931Z,42.83
2023-05-16T07:51:44.940Z,42.56
2023-05-16T07:54:13.405Z,42.42
2023-05-16T07:56:41.479Z,42.13
2023-05-16T07:59:11.281Z,41.83
2023-05-16T08:01:39.367Z,42.10
2023-05-16T08:04:07.334Z,41.82
2023-05-16T08:06:35.602Z,42.05
2023-05-16T08:09:04.776Z,41.87
2023-05-16T08:11:32.843Z,41.85
2023-05-16T08:14:00.881Z,41.54
2023-05-16T08:16:32.658Z,41.37
2023-05-16T08:19:00.867Z,41.04
2023-05-16T08:21:28.913Z,40.93
2023-05-16T08:23:56.980Z,40.96
2023-05-16T08:26:25.146Z,41.16
2023-05-16T08:28:53.173Z,41.15
2023-05-16T08:31:21.274Z,41.11
2023-05-16T08:33:50.863Z,41.15
2023-05-16T08:36:20.069Z,41.14
2023-05-16T08:38:49.253Z,41.00
2023-05-16T08:41:17.266Z,40.93
2023-05-16T08:43:45.477Z,40.84
2023-05-16T08:46:14.359Z,40.64
2023-05-16T08:48:46.305Z,40.55
2023-05-16T08:51:20.054Z,40.72
2023-05-16T08:53:58.698Z,40.57
2023-05-16T08:56:27.481Z,39.68
2023-05-16T08:58:56.309Z,40.17
2023-05-16T09:01:24.597Z,40.07
2023-05-16T09:03:53.974Z,40.20
2023-05-16T09:06:23.421Z,40.22
2023-05-16T09:08:51.662Z,39.96
2023-05-16T09:11:20.056Z,39.95
2023-05-16T09:13:48.326Z,39.82
2023-05-16T09:16:18.381Z,39.76
2023-05-16T09:18:55.261Z,39.89
2023-05-16T09:21:25.244Z,39.78
2023-05-16T09:23:53.880Z,39.77
2023-05-16T09:26:24.504Z,39.79
2023-05-16T09:28:55.247Z,39.74
2023-05-16T09:31:26.540Z,39.94
2023-05-16T09:33:57.058Z,39.86
2023-05-16T09:36:27.176Z,39.88
2023-05-16T09:38:55.754Z,39.67
2023-05-16T09:41:23.791Z,39.58
2023-05-16T09:43:51.964Z,39.48
2023-05-16T09:46:20.479Z,39.59
2023-05-16T09:48:49.189Z,39.47
2023-05-16T09:51:17.247Z,39.61
2023-05-16T09:53:46.593Z,39.64
2023-05-16T09:56:15.749Z,39.52
2023-05-16T09:58:44.949Z,39.59
2023-05-16T10:01:13.406Z,39.56
2023-05-16T10:03:43.788Z,39.60
2023-05-16T10:06:13.756Z,39.53
2023-05-16T10:08:44.405Z,39.63
2023-05-16T10:11:19.264Z,39.62
2023-05-16T10:13:53.045Z,39.67
2023-05-16T10:16:24.113Z,39.69
2023-05-16T10:18:53.269Z,39.65
2023-05-16T10:21:24.550Z,39.87
2023-05-16T10:23:54.459Z,39.91
2023-05-16T10:26:24.767Z,39.85
2023-05-16T10:28:53.646Z,40.34
2023-05-16T10:31:22.582Z,40.15
2023-05-16T10:33:51.299Z,42.58
2023-05-16T10:36:19.478Z,42.34
2023-05-16T10:38:48.703Z,41.82
2023-05-16T10:41:17.670Z,41.70
2023-05-16T10:43:57.726Z,41.64
2023-05-16T10:46:28.111Z,41.48
2023-05-16T10:48:58.576Z,41.43
2023-05-16T10:51:38.284Z,41.47
2023-05-16T10:54:08.593Z,41.35
2023-05-16T10:56:36.872Z,41.42
2023-05-16T10:59:06.224Z,41.38
2023-05-16T11:01:35.387Z,41.44
2023-05-16T11:04:10.338Z,41.58
2023-05-16T11:06:52.446Z,41.60
2023-05-16T11:09:26.798Z,41.47
2023-05-16T11:12:01.076Z,41.21
2023-05-16T11:14:38.289Z,41.35
2023-05-16T11:17:10.617Z,41.29
2023-05-16T11:19:42.760Z,41.15
2023-05-16T11:22:23.017Z,42.41
2023-05-16T11:24:57.167Z,43.64
2023-05-16T11:27:28.021Z,43.29
2023-05-16T11:30:12.131Z,42.54
2023-05-16T11:32:42.032Z,41.50
2023-05-16T11:35:14.493Z,41.53
2023-05-16T11:37:43.358Z,41.61
2023-05-16T11:40:13.798Z,41.54
2023-05-16T11:42:43.624Z,41.65
2023-05-16T11:45:17.152Z,41.37
2023-05-16T11:47:47.608Z,41.39
2023-05-16T11:50:16.755Z,41.41
2023-05-16T11:52:46.004Z,41.45
2023-05-16T11:55:21.474Z,41.59
2023-05-16T11:57:58.910Z,41.54
2023-05-16T12:00:28.860Z,41.60
2023-05-16T12:03:04.564Z,41.67
2023-05-16T12:05:33.989Z,41.74
2023-05-16T12:08:04.958Z,41.85
2023-05-16T12:10:34.626Z,41.40
2023-05-16T12:13:03.921Z,41.57
2023-05-16T12:15:34.414Z,41.66
2023-05-16T12:18:03.128Z,41.60
2023-05-16T12:20:31.319Z,41.46
2023-05-16T12:22:59.506Z,41.62
2023-05-16T12:25:29.581Z,41.40
2023-05-16T12:28:00.314Z,41.41
2023-05-16T12:30:29.503Z,41.48
2023-05-16T12:32:59.728Z,41.53
2023-05-16T12:35:32.208Z,41.16
2023-05-16T12:38:00.285Z,41.32
2023-05-16T12:40:30.325Z,41.29
2023-05-16T12:43:01.348Z,41.21
2023-05-16T12:45:33.947Z,41.06
2023-05-16T12:48:12.873Z,41.45
2023-05-16T12:50:41.784Z,41.58
2023-05-16T12:53:13.701Z,41.70
2023-05-16T12:55:42.161Z,41.66
2023-05-16T12:58:11.094Z,42.00
2023-05-16T13:00:40.095Z,42.19
2023-05-16T13:03:09.619Z,42.31
2023-05-16T13:05:37.680Z,42.54
2023-05-16T13:08:06.207Z,42.89
2023-05-16T13:10:35.206Z,42.75
2023-05-16T13:13:04.473Z,42.72
2023-05-16T13:15:32.669Z,43.44
2023-05-16T13:18:00.726Z,42.61
2023-05-16T13:20:30.776Z,42.46
2023-05-16T13:22:58.814Z,42.38
2023-05-16T13:25:27.132Z,42.53
2023-05-16T13:27:55.310Z,42.54
2023-05-16T13:30:24.598Z,42.50
2023-05-16T13:32:53.049Z,42.46
2023-05-16T13:35:21.736Z,42.33
2023-05-16T13:37:51.076Z,42.30
2023-05-16T13:40:19.010Z,42.48
2023-05-16T13:42:47.065Z,42.52
2023-05-16T13:45:15.033Z,42.77
2023-05-16T13:47:43.046Z,42.59
2023-05-16T13:50:12.312Z,42.77
2023-05-16T13:52:43.904Z,42.85
2023-05-16T13:55:16.157Z,42.95
2023-05-16T13:57:44.115Z,42.96
2023-05-16T14:00:35.385Z,43.26
2023-05-16T14:03:03.357Z,43.04
2023-05-16T14:05:31.756Z,42.94
2023-05-16T14:07:59.750Z,42.96
2023-05-16T14:10:29.414Z,43.42
2023-05-16T14:12:57.642Z,43.98
2023-05-16T14:15:25.724Z,47.28
2023-05-16T14:17:56.466Z,50.07
2023-05-16T14:20:24.624Z,52.70
2023-05-16T14:22:55.358Z,53.98
2023-05-16T14:25:23.563Z,52.92
2023-05-16T14:27:52.927Z,52.96
2023-05-16T14:30:20.939Z,52.20
2023-05-16T14:32:49.095Z,52.08
2023-05-16T14:35:20.046Z,52.03
2023-05-16T14:37:48.057Z,52.23
2023-05-16T14:40:15.981Z,52.10
2023-05-16T14:42:44.035Z,51.74
2023-05-16T14:45:13.760Z,51.90
2023-05-16T14:47:42.390Z,51.65
2023-05-16T14:50:11.050Z,51.42
2023-05-16T14:52:41.640Z,51.37
2023-05-16T14:55:09.840Z,51.34
2023-05-16T14:57:38.124Z,51.25
2023-05-16T15:00:07.477Z,51.03
2023-05-16T15:02:36.854Z,50.89
2023-05-16T15:05:05.743Z,50.81
2023-05-16T15:07:33.755Z,50.61
2023-05-16T15:10:01.947Z,50.32
2023-05-16T15:12:30.003Z,50.17
2023-05-16T15:14:57.955Z,50.05
2023-05-16T15:17:26.098Z,50.54
2023-05-16T15:19:55.773Z,50.44
2023-05-16T15:22:23.773Z,49.63
2023-05-16T15:24:51.858Z,49.33
2023-05-16T15:27:19.809Z,49.15
2023-05-16T15:29:50.741Z,48.78
2023-05-16T15:32:18.865Z,48.93
2023-05-16T15:34:46.850Z,48.80
2023-05-16T15:37:16.242Z,48.86
2023-05-16T15:39:44.717Z,49.09
2023-05-16T15:42:15.766Z,48.81
2023-05-16T15:44:43.705Z,48.92
2023-05-16T15:47:11.732Z,48.81
2023-05-16T15:49:42.914Z,48.90
2023-05-16T15:52:10.881Z,48.71
2023-05-16T15:54:43.262Z,48.47
2023-05-16T15:57:11.395Z,48.40
2023-05-16T15:59:42.178Z,48.58
2023-05-16T16:02:10.166Z,48.52
2023-05-16T16:04:38.308Z,48.30
2023-05-16T16:07:08.989Z,48.02
2023-05-16T16:09:37.016Z,48.15
2023-05-16T16:12:07.001Z,47.99
2023-05-16T16:14:35.058Z,48.13
2023-05-16T16:17:05.311Z,48.00
2023-05-16T16:19:33.261Z,47.95
2023-05-16T16:22:01.302Z,47.87
2023-05-16T16:24:29.365Z,47.77
2023-05-16T16:26:57.321Z,47.77
2023-05-16T16:29:26.992Z,47.84
2023-05-16T16:31:55.111Z,47.51
2023-05-16T16:34:25.964Z,47.25
2023-05-16T16:36:54.213Z,47.16
2023-05-16T16:39:22.574Z,47.07
2023-05-16T16:41:50.596Z,47.24
2023-05-16T16:44:18.647Z,47.08
2023-05-16T16:46:48.110Z,47.59
2023-05-16T16:49:16.051Z,47.52
2023-05-16T16:51:44.089Z,47.71
2023-05-16T16:54:12.081Z,48.01
2023-05-16T16:56:40.091Z,47.57
2023-05-16T16:59:08.130Z,48.54
2023-05-16T17:01:36.450Z,48.41
2023-05-16T17:04:06.251Z,48.08
2023-05-16T17:06:34.328Z,47.97
2023-05-16T17:09:05.217Z,47.81
2023-05-16T17:11:36.328Z,47.66
2023-05-16T17:14:06.195Z,47.49
2023-05-16T17:16:34.428Z,47.29
2023-05-16T17:19:02.521Z,47.09
2023-05-16T17:21:34.587Z,47.21
2023-05-16T17:24:03.835Z,46.86
2023-05-16T17:26:31.775Z,46.97
2023-05-16T17:29:00.243Z,46.76
2023-05-16T17:31:29.601Z,46.69
2023-05-16T17:33:58.324Z,46.82
2023-05-16T17:36:26.292Z,46.59
2023-05-16T17:38:55.740Z,46.43
2023-05-16T17:41:23.738Z,46.63
2023-05-16T17:43:51.703Z,46.44
2023-05-16T17:46:19.683Z,46.56
2023-05-16T17:48:50.296Z,46.44
2023-05-16T17:51:18.401Z,46.70
2023-05-16T17:53:47.933Z,46.45
2023-05-16T17:56:20.516Z,46.46
2023-05-16T17:58:48.582Z,46.54
2023-05-16T18:01:16.617Z,46.47
2023-05-16T18:03:45.094Z,46.45
2023-05-16T18:06:13.392Z,46.40
2023-05-16T18:08:41.558Z,46.62
2023-05-16T18:11:10.140Z,46.58
2023-05-16T18:13:39.899Z,46.51
2023-05-16T18:16:10.194Z,46.44
2023-05-16T18:18:39.166Z,46.81
2023-05-16T18:21:10.355Z,46.73
2023-05-16T18:23:38.319Z,46.82
2023-05-16T18:26:06.408Z,46.94
2023-05-16T18:28:34.511Z,47.61
2023-05-16T18:31:04.476Z,47.68
2023-05-16T18:33:32.670Z,47.55
2023-05-16T18:36:00.694Z,47.40
2023-05-16T18:38:33.088Z,47.30
2023-05-16T18:41:02.032Z,47.27
2023-05-16T18:43:30.663Z,47.40
2023-05-16T18:45:59.056Z,47.39
2023-05-16T18:48:28.553Z,47.46
2023-05-16T18:50:57.010Z,47.96
2023-05-16T18:53:25.298Z,47.65
2023-05-16T18:55:53.260Z,47.75
2023-05-16T18:58:21.386Z,47.46
2023-05-16T19:00:49.419Z,47.70
2023-05-16T19:03:17.602Z,47.57
2023-05-16T19:05:47.529Z,47.88
2023-05-16T19:08:15.739Z,47.92
2023-05-16T19:10:46.683Z,47.69
2023-05-16T19:13:14.690Z,47.88
2023-05-16T19:15:45.293Z,47.94
2023-05-16T19:18:13.435Z,47.89
2023-05-16T19:20:44.928Z,47.90
2023-05-16T19:23:15.186Z,48.12
2023-05-16T19:25:47.267Z,48.02
2023-05-16T19:28:15.718Z,48.16
2023-05-16T19:30:44.253Z,48.20
2023-05-16T19:33:12.270Z,48.32
2023-05-16T19:35:40.397Z,48.24
2023-05-16T19:38:08.355Z,48.35
2023-05-16T19:40:37.699Z,48.35
2023-05-16T19:43:05.708Z,48.46
2023-05-16T19:45:36.458Z,48.61
2023-05-16T19:48:04.863Z,48.59
2023-05-16T19:50:32.864Z,48.67
2023-05-16T19:53:04.156Z,48.58
2023-05-16T19:55:32.476Z,48.24
2023-05-16T19:58:01.785Z,48.21
2023-05-16T20:00:29.786Z,48.17
2023-05-16T20:02:57.860Z,48.19
2023-05-16T20:05:26.130Z,48.00
2023-05-16T20:07:55.237Z,48.12
2023-05-16T20:10:23.358Z,48.18
2023-05-16T20:12:54.037Z,48.24
2023-05-16T20:15:23.460Z,48.18
2023-05-16T20:17:51.465Z,48.11
2023-05-16T20:20:19.419Z,48.00
2023-05-16T20:22:47.440Z,48.19
2023-05-16T20:25:15.407Z,48.01
2023-05-16T20:27:43.380Z,48.13
2023-05-16T20:30:11.897Z,48.17
2023-05-16T20:32:41.553Z,48.21
2023-05-16T20:35:11.356Z,47.97
2023-05-16T20:37:39.965Z,48.02
2023-05-16T20:40:09.911Z,47.96
2023-05-16T20:42:37.980Z,48.03
2023-05-16T20:45:06.589Z,48.16
2023-05-16T20:47:35.022Z,48.03
2023-05-16T20:50:04.531Z,48.02
2023-05-16T20:52:32.584Z,47.92
2023-05-16T20:55:01.467Z,48.09
2023-05-16T20:57:29.626Z,48.03
2023-05-16T20:59:57.635Z,48.09
2023-05-16T21:02:25.777Z,48.07
2023-05-16T21:04:53.803Z,47.92
2023-05-16T21:07:23.355Z,47.88
2023-05-16T21:09:51.446Z,48.06
2023-05-16T21:12:19.424Z,48.04
2023-05-16T21:14:47.654Z,48.21
2023-05-16T21:17:15.694Z,48.37
2023-05-16T21:19:43.872Z,47.86
2023-05-16T21:22:11.969Z,47.97
2023-05-16T21:24:41.712Z,48.11
2023-05-16T21:27:09.831Z,48.05
2023-05-16T21:29:37.880Z,47.74
2023-05-16T21:32:06.308Z,47.88
2023-05-16T21:34:34.260Z,47.81
2023-05-16T21:37:02.317Z,47.89
2023-05-16T21:39:30.268Z,47.90
2023-05-16T21:42:00.732Z,47.97
2023-05-16T21:44:28.808Z,47.90
2023-05-16T21:46:56.755Z,47.96
2023-05-16T21:49:24.873Z,47.83
2023-05-16T21:51:53.004Z,47.75
2023-05-16T21:54:20.967Z,47.93
2023-05-16T21:56:48.935Z,47.84
2023-05-16T21:59:21.227Z,48.10
2023-05-16T22:01:49.240Z,48.50
2023-05-16T22:04:17.362Z,48.07
2023-05-16T22:06:45.479Z,47.93
2023-05-16T22:09:13.404Z,47.79
2023-05-16T22:11:41.443Z,47.61
2023-05-16T22:14:09.428Z,47.49
2023-05-16T22:16:38.945Z,47.52
2023-05-16T22:19:07.016Z,47.31
2023-05-16T22:21:35.006Z,47.30
2023-05-16T22:24:03.131Z,47.23
2023-05-16T22:26:31.281Z,47.05
2023-05-16T22:28:59.361Z,47.20
2023-05-16T22:31:27.284Z,47.03
2023-05-16T22:33:56.710Z,47.10
2023-05-16T22:36:26.760Z,46.93
2023-05-16T22:38:54.834Z,47.00
2023-05-16T22:41:22.725Z,46.81
2023-05-16T22:43:50.700Z,46.88
2023-05-16T22:46:18.739Z,46.76
2023-05-16T22:48:46.787Z,46.69
2023-05-16T22:51:16.153Z,46.77
2023-05-16T22:53:44.130Z,46.49
2023-05-16T22:56:12.145Z,46.61
2023-05-16T22:58:40.132Z,46.54
2023-05-16T23:01:08.598Z,46.49
2023-05-16T23:03:36.786Z,46.47
2023-05-16T23:06:05.253Z,46.42
2023-05-16T23:08:34.632Z,46.56
2023-05-16T23:11:02.776Z,46.41
2023-05-16T23:13:30.791Z,46.51
2023-05-16T23:15:58.888Z,46.46
2023-05-16T23:18:26.957Z,46.43
2023-05-16T23:20:55.029Z,46.45
2023-05-16T23:23:22.966Z,46.36
2023-05-16T23:25:52.358Z,46.28
2023-05-16T23:28:23.316Z,46.33
2023-05-16T23:30:51.356Z,46.44
2023-05-16T23:33:19.466Z,46.33
2023-05-16T23:35:47.729Z,46.22
2023-05-16T23:38:15.897Z,46.28
2023-05-16T23:40:43.868Z,46.20
2023-05-16T23:43:13.157Z,46.20
2023-05-16T23:45:41.166Z,46.12
2023-05-16T23:48:09.284Z,46.22
2023-05-16T23:50:37.420Z,46.15
2023-05-16T23:53:05.347Z,46.17
2023-05-16T23:55:33.256Z,46.03
2023-05-16T23:58:01.201Z,46.07
